Time;durP1;ratioP1;P1;durP2;ratioP2;P2;SDS_P1;SDS_P2;PMS_P1;PMS_P2;Temp;Humidity;BMP_temperature;BMP_pressure;BME280_temperature;BME280_humidity;BME280_pressure;Samples;Min_cycle;Max_cycle;Signal;HPM_P1;HPM_P2
2023/09/18 00:00:43;;;;;;;12.73;11.73;;;20.00;1.00;;;;;;5088561;28;20489;-74
2023/09/18 00:03:10;;;;;;;12.37;11.47;;;19.90;1.00;;;;;;5086596;28;20444;-74
2023/09/18 00:05:36;;;;;;;12.30;11.30;;;20.00;1.00;;;;;;5090290;28;20466;-74
2023/09/18 00:08:05;;;;;;;12.87;11.80;;;19.90;1.00;;;;;;5088193;28;20491;-75
2023/09/18 00:10:32;;;;;;;12.63;11.57;;;19.90;1.00;;;;;;5086844;28;20491;-74
2023/09/18 00:12:59;;;;;;;13.07;12.03;;;19.90;1.00;;;;;;5083950;28;20447;-75
2023/09/18 00:15:26;;;;;;;13.10;12.17;;;19.90;1.00;;;;;;5087690;28;20955;-76
2023/09/18 00:17:53;;;;;;;12.60;11.60;;;19.90;1.00;;;;;;5086074;28;20989;-76
2023/09/18 00:20:20;;;;;;;13.00;11.90;;;19.90;1.00;;;;;;5081606;28;20475;-74
2023/09/18 00:22:47;;;;;;;12.67;11.67;;;19.80;1.00;;;;;;5087488;27;20457;-74
2023/09/18 00:25:16;;;;;;;12.73;11.63;;;19.80;1.00;;;;;;5086310;28;20470;-74
2023/09/18 00:27:43;;;;;;;13.73;12.63;;;19.80;1.00;;;;;;5088054;28;20455;-73
2023/09/18 00:30:11;;;;;;;13.00;12.00;;;19.80;1.00;;;;;;5085093;28;20540;-74
2023/09/18 00:32:38;;;;;;;13.10;12.10;;;19.70;1.00;;;;;;5088151;28;20491;-74
2023/09/18 00:35:06;;;;;;;12.70;11.70;;;19.70;1.00;;;;;;5086235;28;21621;-75
2023/09/18 00:37:36;;;;;;;12.50;11.50;;;19.60;1.00;;;;;;5088971;28;20464;-74
2023/09/18 00:40:04;;;;;;;12.60;11.60;;;19.70;1.00;;;;;;5087732;28;20488;-75
2023/09/18 00:42:33;;;;;;;12.80;11.50;;;19.60;1.00;;;;;;5088097;28;20482;-74
2023/09/18 00:44:59;;;;;;;13.37;12.23;;;19.60;1.00;;;;;;5086868;28;20486;-75
2023/09/18 00:47:27;;;;;;;16.10;12.60;;;19.60;1.00;;;;;;5089372;28;20455;-75
2023/09/18 00:49:54;;;;;;;12.77;11.77;;;19.60;1.00;;;;;;5086447;28;20468;-75
2023/09/18 00:52:23;;;;;;;11.67;10.77;;;19.60;1.00;;;;;;5085483;28;20449;-73
2023/09/18 00:54:50;;;;;;;13.47;12.33;;;19.60;1.00;;;;;;5087234;28;20575;-73
2023/09/18 00:57:17;;;;;;;13.17;12.17;;;19.50;1.00;;;;;;5088859;28;20458;-69
2023/09/18 00:59:46;;;;;;;13.47;12.23;;;19.50;1.00;;;;;;5088359;28;20482;-69
2023/09/18 01:02:13;;;;;;;13.50;12.50;;;19.40;1.00;;;;;;5088917;28;20546;-71
2023/09/18 01:04:43;;;;;;;13.00;11.90;;;19.40;1.00;;;;;;5089683;28;20483;-72
2023/09/18 01:07:11;;;;;;;13.63;12.53;;;19.40;1.00;;;;;;5087902;28;20451;-73
2023/09/18 01:09:38;;;;;;;13.17;12.17;;;19.30;1.00;;;;;;5090615;28;20493;-70
2023/09/18 01:12:16;;;;;;;12.50;11.50;;;19.30;1.00;;;;;;5088987;28;20511;-70
2023/09/18 01:14:51;;;;;;;11.67;10.83;;;19.20;1.00;;;;;;5088378;28;20468;-72
2023/09/18 01:17:19;;;;;;;12.50;11.50;;;19.20;1.00;;;;;;5089122;28;20548;-70
2023/09/18 01:19:47;;;;;;;12.70;11.70;;;19.20;1.00;;;;;;5085705;28;20493;-69
2023/09/18 01:22:16;;;;;;;12.10;11.30;;;19.20;1.00;;;;;;5088197;28;20816;-69
2023/09/18 01:24:47;;;;;;;12.20;11.20;;;19.20;1.00;;;;;;5089418;28;20490;-70
2023/09/18 01:27:16;;;;;;;13.17;12.17;;;19.20;1.00;;;;;;5086876;28;20469;-71
2023/09/18 01:29:44;;;;;;;13.10;12.10;;;19.20;1.00;;;;;;5085761;28;20469;-69
2023/09/18 01:32:11;;;;;;;13.23;12.23;;;19.10;1.00;;;;;;5087474;28;20512;-69
2023/09/18 01:34:41;;;;;;;11.87;10.87;;;19.10;1.00;;;;;;5085519;28;20970;-70
2023/09/18 01:37:09;;;;;;;12.40;11.13;;;19.10;1.00;;;;;;5087531;28;20476;-69
2023/09/18 01:39:37;;;;;;;12.83;11.83;;;19.10;1.00;;;;;;5086539;28;20476;-68
2023/09/18 01:42:09;;;;;;;12.50;11.50;;;19.10;1.00;;;;;;5088271;28;20527;-69
2023/09/18 01:44:37;;;;;;;12.93;11.90;;;19.10;1.00;;;;;;5089780;28;20447;-70
2023/09/18 01:47:06;;;;;;;13.20;12.17;;;19.00;1.00;;;;;;5086701;28;20449;-70
2023/09/18 01:49:34;;;;;;;12.13;11.23;;;19.00;1.00;;;;;;5089249;28;20543;-70
2023/09/18 01:52:01;;;;;;;12.67;11.50;;;19.00;1.00;;;;;;5083989;28;20564;-70
2023/09/18 01:54:28;;;;;;;12.50;11.50;;;19.00;1.00;;;;;;5085035;28;20502;-72
2023/09/18 01:56:57;;;;;;;14.57;13.23;;;18.90;1.00;;;;;;5086051;28;20487;-69
2023/09/18 01:59:26;;;;;;;12.53;11.40;;;18.90;1.00;;;;;;5088167;28;20477;-70
2023/09/18 02:01:54;;;;;;;12.03;11.13;;;18.80;1.00;;;;;;5087776;28;20536;-69
2023/09/18 02:04:21;;;;;;;12.97;11.90;;;18.80;1.00;;;;;;5086215;28;20428;-72
2023/09/18 02:06:51;;;;;;;13.40;12.27;;;18.80;1.00;;;;;;5086937;28;20457;-69
2023/09/18 02:09:19;;;;;;;12.40;11.50;;;18.80;1.00;;;;;;5088610;28;20824;-70
2023/09/18 02:11:48;;;;;;;12.43;11.23;;;18.70;1.00;;;;;;5088149;28;20466;-69
2023/09/18 02:14:15;;;;;;;13.33;12.10;;;18.70;1.00;;;;;;5090071;28;20452;-69
2023/09/18 02:16:45;;;;;;;13.27;12.07;;;18.60;1.00;;;;;;5082120;28;21069;-69
2023/09/18 02:19:13;;;;;;;12.37;11.27;;;18.60;1.00;;;;;;5083771;28;20503;-70
2023/09/18 02:21:41;;;;;;;13.43;12.23;;;18.60;1.00;;;;;;5087665;28;20480;-69
2023/09/18 02:24:08;;;;;;;11.57;10.67;;;18.60;1.00;;;;;;5085087;28;21031;-70
2023/09/18 02:26:36;;;;;;;12.20;11.20;;;18.50;1.00;;;;;;5087760;28;20879;-69
2023/09/18 02:29:11;;;;;;;12.60;11.60;;;18.50;1.00;;;;;;5086144;28;20483;-71
2023/09/18 02:31:38;;;;;;;12.63;11.73;;;18.40;1.00;;;;;;5084438;28;20487;-70
2023/09/18 02:34:07;;;;;;;12.80;11.70;;;18.50;1.00;;;;;;5088707;28;20444;-69
2023/09/18 02:36:34;;;;;;;12.93;11.87;;;18.50;1.00;;;;;;5089181;28;20463;-70
2023/09/18 02:39:01;;;;;;;11.50;10.70;;;18.50;1.00;;;;;;5088079;28;20553;-70
2023/09/18 02:41:27;;;;;;;11.93;11.03;;;18.50;1.00;;;;;;5090177;27;20450;-70
2023/09/18 02:43:55;;;;;;;11.93;11.03;;;18.50;1.00;;;;;;5089061;28;20917;-70
2023/09/18 02:46:22;;;;;;;13.30;12.30;;;18.50;1.00;;;;;;5087068;28;20449;-70
2023/09/18 02:48:49;;;;;;;11.93;10.90;;;18.50;1.00;;;;;;5089357;28;20480;-70
2023/09/18 02:51:17;;;;;;;11.30;10.50;;;18.40;1.00;;;;;;5088745;28;20461;-70
2023/09/18 02:53:44;;;;;;;13.03;11.93;;;18.40;1.00;;;;;;5090154;28;20971;-70
2023/09/18 02:56:11;;;;;;;13.53;12.23;;;18.30;1.00;;;;;;5090417;28;20878;-72
2023/09/18 02:58:37;;;;;;;12.43;11.43;;;18.40;1.00;;;;;;5084874;28;20553;-71
2023/09/18 03:01:05;;;;;;;14.27;13.17;;;18.40;1.00;;;;;;5086954;28;20532;-71
2023/09/18 03:03:32;;;;;;;13.47;12.27;;;18.40;1.00;;;;;;5090147;28;20465;-70
2023/09/18 03:06:03;;;;;;;13.10;12.00;;;18.30;1.00;;;;;;5092391;28;20530;-70
2023/09/18 03:08:31;;;;;;;12.60;11.43;;;18.30;1.00;;;;;;5086864;28;20473;-69
2023/09/18 03:10:58;;;;;;;11.63;10.63;;;18.30;1.00;;;;;;5090241;28;21007;-69
2023/09/18 03:13:27;;;;;;;12.57;11.67;;;18.20;1.00;;;;;;5090304;28;20497;-72
2023/09/18 03:15:54;;;;;;;12.57;11.57;;;18.10;1.00;;;;;;5088862;28;20490;-72
2023/09/18 03:18:21;;;;;;;12.87;11.87;;;18.20;1.00;;;;;;5088047;28;20556;-70
2023/09/18 03:20:49;;;;;;;13.27;12.00;;;18.10;1.00;;;;;;5086590;28;20455;-69
2023/09/18 03:23:16;;;;;;;12.60;11.60;;;18.20;1.00;;;;;;5089681;28;20443;-71
2023/09/18 03:25:44;;;;;;;12.70;11.60;;;18.20;1.00;;;;;;5082060;28;20591;-69
2023/09/18 03:28:11;;;;;;;12.93;11.80;;;18.10;1.00;;;;;;5086874;28;20494;-70
2023/09/18 03:30:38;;;;;;;12.50;11.40;;;18.10;1.00;;;;;;5087603;28;20550;-69
2023/09/18 03:33:05;;;;;;;12.50;11.50;;;18.10;1.00;;;;;;5085499;28;20544;-70
2023/09/18 03:35:32;;;;;;;12.47;11.50;;;18.10;1.00;;;;;;5085569;28;20460;-72
2023/09/18 03:37:59;;;;;;;13.73;12.27;;;18.00;1.00;;;;;;5086946;28;20542;-70
2023/09/18 03:40:26;;;;;;;14.20;11.37;;;18.00;1.00;;;;;;5088245;28;20856;-71
2023/09/18 03:42:54;;;;;;;14.20;12.80;;;18.00;1.00;;;;;;5088478;28;20958;-72
2023/09/18 03:45:21;;;;;;;12.23;11.23;;;18.00;1.00;;;;;;5088947;28;20989;-69
2023/09/18 03:47:49;;;;;;;12.17;10.97;;;18.00;1.00;;;;;;5089512;28;20993;-69
2023/09/18 03:50:16;;;;;;;13.20;11.90;;;18.00;1.00;;;;;;5090932;28;20504;-70
2023/09/18 03:52:43;;;;;;;13.00;11.13;;;18.00;1.00;;;;;;5088328;28;20502;-70
2023/09/18 03:55:11;;;;;;;11.73;10.83;;;18.00;1.00;;;;;;5088221;28;20457;-72
2023/09/18 03:57:37;;;;;;;12.50;11.40;;;17.90;1.00;;;;;;5085362;28;20596;-69
2023/09/18 04:00:08;;;;;;;13.27;12.07;;;18.00;1.00;;;;;;5087418;28;20466;-69
2023/09/18 04:02:35;;;;;;;12.43;11.30;;;18.00;1.00;;;;;;5083922;28;20887;-70
2023/09/18 04:05:03;;;;;;;14.03;12.83;;;18.00;1.00;;;;;;5082220;28;20456;-74
2023/09/18 04:07:31;;;;;;;13.13;11.17;;;18.00;1.00;;;;;;5089190;28;20563;-71
2023/09/18 04:09:57;;;;;;;13.43;12.33;;;17.90;1.00;;;;;;5085682;28;20431;-71
2023/09/18 04:12:25;;;;;;;15.23;13.50;;;17.90;1.00;;;;;;5086851;28;20485;-70
2023/09/18 04:14:52;;;;;;;13.00;12.00;;;17.90;1.00;;;;;;5086437;28;20932;-70
2023/09/18 04:17:21;;;;;;;12.70;11.70;;;17.90;1.00;;;;;;5083581;28;20464;-69
2023/09/18 04:19:50;;;;;;;13.43;12.23;;;18.00;1.00;;;;;;5074461;28;20566;-69
2023/09/18 04:22:17;;;;;;;12.53;11.60;;;17.90;1.00;;;;;;5068419;28;20463;-72
2023/09/18 04:24:44;;;;;;;13.40;12.03;;;17.90;1.00;;;;;;5080008;28;20555;-70
2023/09/18 04:27:11;;;;;;;12.60;11.70;;;17.90;1.00;;;;;;5082977;28;20486;-74
2023/09/18 04:29:38;;;;;;;10.83;10.03;;;17.90;1.00;;;;;;5083290;28;20908;-74
2023/09/18 04:32:07;;;;;;;11.83;10.93;;;17.90;1.00;;;;;;5065149;28;20565;-75
2023/09/18 04:34:35;;;;;;;13.17;12.07;;;18.00;1.00;;;;;;5085445;28;20457;-74
2023/09/18 04:37:03;;;;;;;12.90;11.90;;;18.00;1.00;;;;;;5086729;28;20545;-74
2023/09/18 04:39:33;;;;;;;12.87;11.73;;;18.00;1.00;;;;;;5085794;28;20472;-75
2023/09/18 04:42:03;;;;;;;12.47;11.37;;;18.00;1.00;;;;;;5086312;28;20461;-74
2023/09/18 04:44:31;;;;;;;12.80;11.60;;;18.00;1.00;;;;;;5084629;28;20522;-74
2023/09/18 04:46:58;;;;;;;11.50;10.50;;;18.00;1.00;;;;;;5084298;28;20469;-75
2023/09/18 04:49:26;;;;;;;15.40;14.00;;;18.00;1.00;;;;;;5086723;28;20491;-77
2023/09/18 04:51:54;;;;;;;15.70;14.10;;;18.00;1.00;;;;;;5084081;28;20550;-74
2023/09/18 04:54:21;;;;;;;13.00;11.63;;;18.10;1.00;;;;;;5083503;28;20483;-74
2023/09/18 04:56:48;;;;;;;12.53;11.43;;;18.00;1.00;;;;;;5083488;28;20494;-74
2023/09/18 04:59:15;;;;;;;12.60;11.53;;;18.10;1.00;;;;;;5084934;28;20511;-75
2023/09/18 05:01:43;;;;;;;13.63;12.13;;;18.10;1.00;;;;;;5078796;28;20448;-73
2023/09/18 05:04:11;;;;;;;12.37;11.17;;;18.10;1.00;;;;;;5082604;28;20456;-74
2023/09/18 05:06:40;;;;;;;11.90;11.00;;;18.20;1.00;;;;;;5086437;28;20479;-75
2023/09/18 05:09:08;;;;;;;12.67;11.60;;;18.20;1.00;;;;;;5081384;28;20443;-73
2023/09/18 05:11:35;;;;;;;12.47;11.37;;;18.20;1.00;;;;;;5086906;28;20494;-75
2023/09/18 05:14:03;;;;;;;12.20;11.20;;;18.20;1.00;;;;;;5085491;28;20468;-75
2023/09/18 05:16:29;;;;;;;13.07;11.77;;;18.30;1.00;;;;;;5083283;28;20463;-75
2023/09/18 05:18:56;;;;;;;13.90;12.80;;;18.30;1.00;;;;;;5082018;28;20508;-76
2023/09/18 05:21:24;;;;;;;11.97;11.03;;;18.30;1.00;;;;;;5084605;28;20490;-74
2023/09/18 05:23:53;;;;;;;12.67;11.67;;;18.30;1.00;;;;;;5087322;28;20467;-74
2023/09/18 05:26:24;;;;;;;13.47;12.33;;;18.30;1.00;;;;;;5080961;27;20470;-74
2023/09/18 05:28:51;;;;;;;11.80;10.90;;;18.40;1.00;;;;;;5077816;28;20521;-74
2023/09/18 05:31:18;;;;;;;12.63;11.43;;;18.40;1.00;;;;;;5083156;28;20468;-73
2023/09/18 05:33:45;;;;;;;14.50;12.33;;;18.40;1.00;;;;;;5087239;28;20451;-75
2023/09/18 05:36:14;;;;;;;13.93;12.60;;;18.50;1.00;;;;;;5087757;28;20452;-70
2023/09/18 05:38:41;;;;;;;13.67;12.40;;;18.50;1.00;;;;;;5081055;28;20489;-69
2023/09/18 05:41:08;;;;;;;13.67;12.27;;;18.60;1.00;;;;;;5085257;28;20528;-72
2023/09/18 05:43:36;;;;;;;13.40;12.17;;;18.60;1.00;;;;;;5083206;28;22118;-70
2023/09/18 05:46:03;;;;;;;13.20;12.00;;;18.60;1.00;;;;;;5089147;28;20483;-70
2023/09/18 05:48:31;;;;;;;13.13;11.90;;;18.70;1.00;;;;;;5090396;28;20456;-71
2023/09/18 05:50:58;;;;;;;12.77;11.77;;;18.80;1.00;;;;;;5089141;27;20513;-72
2023/09/18 05:53:25;;;;;;;13.37;12.00;;;18.80;1.00;;;;;;5083551;28;20452;-71
2023/09/18 05:55:52;;;;;;;11.93;11.00;;;18.90;1.00;;;;;;5086174;28;21199;-70
2023/09/18 05:58:22;;;;;;;12.27;11.27;;;19.00;1.00;;;;;;5088281;28;20555;-70
2023/09/18 06:00:50;;;;;;;12.87;11.87;;;19.10;1.00;;;;;;5084124;28;20518;-72
2023/09/18 06:03:19;;;;;;;12.67;11.57;;;19.10;1.00;;;;;;5084400;28;20529;-70
2023/09/18 06:05:48;;;;;;;28.93;25.43;;;19.10;1.00;;;;;;5083929;28;20483;-74
2023/09/18 06:08:15;;;;;;;14.97;13.67;;;19.20;1.00;;;;;;5086781;28;20460;-72
2023/09/18 06:10:42;;;;;;;14.23;12.93;;;19.30;1.00;;;;;;5082900;28;20485;-72
2023/09/18 06:13:09;;;;;;;12.43;11.20;;;19.40;1.00;;;;;;5078950;28;20488;-71
2023/09/18 06:15:36;;;;;;;12.43;11.33;;;19.40;1.00;;;;;;5083708;28;20564;-69
2023/09/18 06:18:06;;;;;;;12.50;11.50;;;19.40;1.00;;;;;;5083663;28;20554;-71
2023/09/18 06:20:33;;;;;;;13.30;12.30;;;19.50;1.00;;;;;;5084470;28;20461;-72
2023/09/18 06:23:00;;;;;;;12.30;11.30;;;19.60;1.00;;;;;;5079105;28;21691;-70
2023/09/18 06:25:27;;;;;;;11.33;9.97;;;19.60;1.00;;;;;;5083446;28;20502;-71
2023/09/18 06:27:54;;;;;;;13.17;11.87;;;19.60;1.00;;;;;;5082938;28;20515;-69
2023/09/18 06:30:21;;;;;;;14.77;13.37;;;19.60;1.00;;;;;;5079561;28;20508;-72
2023/09/18 06:32:48;;;;;;;11.10;10.20;;;19.60;1.00;;;;;;5077346;28;20464;-74
2023/09/18 06:35:17;;;;;;;11.97;11.00;;;19.70;1.00;;;;;;5081629;28;20561;-71
2023/09/18 06:37:43;;;;;;;10.73;9.90;;;19.70;1.00;;;;;;5082352;28;20481;-73
2023/09/18 06:40:11;;;;;;;11.60;10.60;;;19.80;1.00;;;;;;5084393;28;20545;-70
2023/09/18 06:42:41;;;;;;;12.40;11.50;;;19.80;1.00;;;;;;5085509;28;20552;-72
2023/09/18 06:45:08;;;;;;;11.50;10.50;;;19.80;1.00;;;;;;5084094;28;20466;-69
2023/09/18 06:47:35;;;;;;;10.90;10.03;;;19.90;1.00;;;;;;5082805;28;20596;-72
2023/09/18 06:50:05;;;;;;;10.70;9.70;;;20.00;1.00;;;;;;5065353;28;20554;-69
2023/09/18 06:52:34;;;;;;;10.60;9.70;;;20.00;1.00;;;;;;5084527;28;20466;-70
2023/09/18 06:55:00;;;;;;;11.17;10.17;;;20.00;1.00;;;;;;5083852;28;20486;-67
2023/09/18 06:57:27;;;;;;;11.50;10.50;;;20.10;1.00;;;;;;5084416;28;20458;-71
2023/09/18 06:59:54;;;;;;;11.40;10.30;;;20.20;1.00;;;;;;5084926;28;20497;-73
2023/09/18 07:02:21;;;;;;;10.80;9.80;;;20.30;1.00;;;;;;5087634;28;20465;-70
2023/09/18 07:04:48;;;;;;;11.17;9.73;;;20.40;1.00;;;;;;5081649;28;20479;-71
2023/09/18 07:07:17;;;;;;;10.50;9.70;;;20.60;1.00;;;;;;5084888;28;21054;-73
2023/09/18 07:09:45;;;;;;;9.97;9.23;;;20.80;1.00;;;;;;5082229;28;20466;-71
2023/09/18 07:12:12;;;;;;;11.03;10.00;;;20.70;1.00;;;;;;5085567;28;20460;-70
2023/09/18 07:14:39;;;;;;;11.20;10.20;;;20.90;1.00;;;;;;5082256;28;21068;-70
2023/09/18 07:17:06;;;;;;;10.33;9.53;;;21.10;1.00;;;;;;5083820;28;20493;-70
2023/09/18 07:19:33;;;;;;;9.93;8.93;;;21.10;1.00;;;;;;5083806;28;20482;-72
2023/09/18 07:22:00;;;;;;;10.10;9.30;;;21.20;1.00;;;;;;5084746;28;20452;-69
2023/09/18 07:24:27;;;;;;;12.83;10.63;;;21.30;1.00;;;;;;5083132;28;20472;-70
2023/09/18 07:26:57;;;;;;;11.70;10.57;;;21.40;1.00;;;;;;5085854;28;20992;-70
2023/09/18 07:29:26;;;;;;;10.10;9.20;;;21.60;1.00;;;;;;5078915;28;20539;-71
2023/09/18 07:31:53;;;;;;;10.33;9.03;;;21.70;1.00;;;;;;5084111;28;20422;-69
2023/09/18 07:34:20;;;;;;;11.03;10.07;;;21.90;1.00;;;;;;5085072;28;20929;-71
2023/09/18 07:36:47;;;;;;;9.60;8.90;;;21.90;1.00;;;;;;5081360;28;20493;-70
2023/09/18 07:39:14;;;;;;;10.40;9.33;;;22.00;1.00;;;;;;5083247;28;20505;-73
2023/09/18 07:41:41;;;;;;;9.53;8.73;;;22.20;1.00;;;;;;5084929;28;20518;-69
2023/09/18 07:44:09;;;;;;;9.90;8.93;;;22.20;1.00;;;;;;5082873;28;20473;-70
2023/09/18 07:46:36;;;;;;;10.33;9.37;;;22.30;1.00;;;;;;5083530;28;20587;-68
2023/09/18 07:49:03;;;;;;;9.53;8.60;;;22.40;1.00;;;;;;5084068;28;23664;-70
2023/09/18 07:51:31;;;;;;;8.87;8.27;;;22.60;1.00;;;;;;5088000;28;20529;-68
2023/09/18 07:53:58;;;;;;;9.33;8.40;;;22.70;1.00;;;;;;5087702;28;20542;-68
2023/09/18 07:56:24;;;;;;;9.00;8.30;;;22.80;1.00;;;;;;5087112;28;20462;-73
2023/09/18 07:58:51;;;;;;;8.47;7.77;;;22.90;1.00;;;;;;5088926;28;20549;-69
2023/09/18 08:01:22;;;;;;;8.10;7.40;;;23.00;1.00;;;;;;5084720;28;20459;-71
2023/09/18 08:03:49;;;;;;;7.47;6.87;;;23.20;1.00;;;;;;5087631;28;20480;-71
2023/09/18 08:06:18;;;;;;;9.10;8.40;;;23.30;1.00;;;;;;5084686;28;20508;-71
2023/09/18 08:08:45;;;;;;;8.40;7.70;;;23.30;1.00;;;;;;5083950;28;21020;-70
2023/09/18 08:11:12;;;;;;;8.60;7.80;;;23.40;1.00;;;;;;5083848;28;20487;-69
2023/09/18 08:13:39;;;;;;;8.63;7.70;;;23.60;1.00;;;;;;5085481;28;20997;-69
2023/09/18 08:16:08;;;;;;;8.63;8.03;;;23.80;1.00;;;;;;5083420;28;20481;-70
2023/09/18 08:18:38;;;;;;;7.47;6.77;;;23.90;1.00;;;;;;5085829;28;21041;-70
2023/09/18 08:21:05;;;;;;;7.77;7.27;;;24.00;1.00;;;;;;5085594;28;21027;-69
2023/09/18 08:23:32;;;;;;;7.33;6.83;;;24.00;1.00;;;;;;5085236;28;20527;-70
2023/09/18 08:25:59;;;;;;;7.80;7.20;;;24.10;1.00;;;;;;5084592;28;20550;-70
2023/09/18 08:28:26;;;;;;;7.67;6.90;;;24.20;1.00;;;;;;5083471;28;20472;-70
2023/09/18 08:30:53;;;;;;;7.67;7.07;;;24.30;1.00;;;;;;5081939;28;20471;-70
2023/09/18 08:33:21;;;;;;;7.37;6.83;;;24.50;1.00;;;;;;5084152;28;20827;-70
2023/09/18 08:35:49;;;;;;;7.37;6.90;;;24.60;1.00;;;;;;5085300;28;20469;-70
2023/09/18 08:38:16;;;;;;;7.80;7.20;;;24.80;1.00;;;;;;5086311;28;20499;-70
2023/09/18 08:40:44;;;;;;;7.50;7.00;;;25.00;1.00;;;;;;5084900;28;20503;-70
2023/09/18 08:43:15;;;;;;;7.27;6.77;;;25.10;1.00;;;;;;5089854;28;20465;-71
2023/09/18 08:45:48;;;;;;;8.00;7.30;;;25.40;1.00;;;;;;5086069;28;20887;-71
2023/09/18 08:48:15;;;;;;;7.23;6.63;;;25.50;1.00;;;;;;5083181;28;20505;-71
2023/09/18 08:50:43;;;;;;;7.53;6.93;;;25.60;1.00;;;;;;5081430;28;20454;-69
2023/09/18 08:53:12;;;;;;;6.33;5.80;;;25.80;1.00;;;;;;5082636;28;20464;-73
2023/09/18 08:55:39;;;;;;;6.13;5.63;;;25.90;1.00;;;;;;5084296;28;20428;-71
2023/09/18 08:58:07;;;;;;;6.73;6.30;;;26.10;1.00;;;;;;5083527;28;20536;-70
2023/09/18 09:00:35;;;;;;;7.10;6.60;;;26.30;1.00;;;;;;5084444;28;20461;-72
2023/09/18 09:03:02;;;;;;;7.53;6.93;;;26.50;1.00;;;;;;5085541;28;20473;-72
2023/09/18 09:05:29;;;;;;;6.40;5.90;;;26.60;1.00;;;;;;5083954;28;20498;-71
2023/09/18 09:07:56;;;;;;;6.73;5.90;;;26.70;1.00;;;;;;5079560;28;20556;-72
2023/09/18 09:10:25;;;;;;;6.87;6.47;;;26.90;1.00;;;;;;5084327;28;20446;-74
2023/09/18 09:12:57;;;;;;;7.10;6.23;;;27.30;1.00;;;;;;5088041;28;20581;-75
2023/09/18 09:15:25;;;;;;;6.33;5.80;;;28.10;1.00;;;;;;5089515;28;20550;-73
2023/09/18 09:18:02;;;;;;;7.17;6.57;;;28.70;1.00;;;;;;5087632;28;20486;-76
2023/09/18 09:20:29;;;;;;;6.90;6.40;;;29.00;1.00;;;;;;5087252;28;20553;-74
2023/09/18 09:23:01;;;;;;;6.10;5.70;;;29.60;1.00;;;;;;5090580;28;20528;-74
2023/09/18 09:25:32;;;;;;;6.90;6.30;;;30.80;1.00;;;;;;5089010;28;20585;-75
2023/09/18 09:28:00;;;;;;;6.37;5.93;;;31.90;1.00;;;;;;5091297;28;20465;-76
2023/09/18 09:30:28;;;;;;;5.20;4.90;;;31.90;1.00;;;;;;5089698;28;20568;-74
2023/09/18 09:32:56;;;;;;;5.97;5.57;;;31.40;1.00;;;;;;5086845;28;20482;-76
2023/09/18 09:35:27;;;;;;;5.70;5.30;;;31.30;1.00;;;;;;5085924;28;20451;-74
2023/09/18 09:37:55;;;;;;;6.53;5.93;;;31.50;1.00;;;;;;5088390;28;20459;-75
2023/09/18 09:40:23;;;;;;;6.83;5.67;;;31.50;1.00;;;;;;5087472;28;20470;-75
2023/09/18 09:43:00;;;;;;;6.47;5.97;;;30.90;1.00;;;;;;5089211;28;20556;-74
2023/09/18 09:45:29;;;;;;;6.40;5.80;;;30.10;1.00;;;;;;5091358;28;20870;-74
2023/09/18 09:47:57;;;;;;;6.03;5.17;;;29.80;1.00;;;;;;5086588;28;20490;-73
2023/09/18 09:50:25;;;;;;;6.00;5.60;;;29.90;1.00;;;;;;5091873;28;20562;-71
2023/09/18 09:52:54;;;;;;;5.77;5.40;;;29.80;1.00;;;;;;5088058;28;20465;-74
2023/09/18 09:55:26;;;;;;;5.70;5.30;;;30.00;1.00;;;;;;5087887;28;20457;-75
2023/09/18 09:57:59;;;;;;;6.40;5.90;;;29.80;1.00;;;;;;5084389;28;20985;-74
2023/09/18 10:00:31;;;;;;;6.13;5.60;;;29.80;1.00;;;;;;5091246;28;20429;-73
2023/09/18 10:03:04;;;;;;;5.97;5.47;;;29.50;1.00;;;;;;5084742;28;20468;-73
2023/09/18 10:05:34;;;;;;;6.30;5.80;;;29.20;1.00;;;;;;5087883;28;20462;-73
2023/09/18 10:08:05;;;;;;;6.30;5.87;;;29.10;1.00;;;;;;5070674;28;20559;-74
2023/09/18 10:10:36;;;;;;;6.47;5.83;;;29.00;1.00;;;;;;5088011;28;20555;-74
2023/09/18 10:13:17;;;;;;;6.63;5.90;;;28.90;1.00;;;;;;5088790;28;20481;-75
2023/09/18 10:15:50;;;;;;;6.13;5.73;;;28.70;1.00;;;;;;5090954;28;20423;-73
2023/09/18 10:18:28;;;;;;;6.87;6.43;;;28.50;1.00;;;;;;5081917;28;20537;-75
2023/09/18 10:21:14;;;;;;;6.50;6.03;;;28.30;1.00;;;;;;5090704;28;20468;-73
2023/09/18 10:23:59;;;;;;;6.27;5.83;;;28.30;1.00;;;;;;5090264;28;21033;-75
2023/09/18 10:26:29;;;;;;;6.67;6.03;;;28.10;1.00;;;;;;5092935;28;20454;-73
2023/09/18 10:28:59;;;;;;;5.90;5.47;;;28.20;1.00;;;;;;5089235;28;20438;-74
2023/09/18 10:31:28;;;;;;;6.73;6.13;;;28.00;1.00;;;;;;5086454;28;20546;-73
2023/09/18 10:33:57;;;;;;;6.30;5.70;;;27.80;1.00;;;;;;5089374;28;20466;-73
2023/09/18 10:36:26;;;;;;;6.77;6.13;;;27.90;1.00;;;;;;5088603;28;20473;-72
2023/09/18 10:38:55;;;;;;;8.03;6.00;;;28.00;1.00;;;;;;5085896;28;20579;-73
2023/09/18 10:41:26;;;;;;;5.97;5.50;;;28.20;1.00;;;;;;5088757;28;20971;-73
2023/09/18 10:43:57;;;;;;;6.60;5.93;;;28.20;1.00;;;;;;5090386;28;20473;-73
2023/09/18 10:46:25;;;;;;;6.50;6.00;;;28.20;1.00;;;;;;5098506;28;20480;-73
2023/09/18 10:48:54;;;;;;;6.97;6.10;;;28.20;1.00;;;;;;5073289;28;20598;-73
2023/09/18 10:51:22;;;;;;;6.20;5.70;;;28.30;1.00;;;;;;5094377;28;20561;-74
2023/09/18 10:53:49;;;;;;;5.70;5.30;;;28.40;1.00;;;;;;5088024;28;20527;-73
2023/09/18 10:56:17;;;;;;;5.53;5.13;;;28.40;1.00;;;;;;5086461;28;20466;-73
2023/09/18 10:58:44;;;;;;;5.77;5.30;;;28.40;1.00;;;;;;5080254;28;20465;-73
2023/09/18 11:01:18;;;;;;;5.57;5.03;;;28.80;1.00;;;;;;5084658;28;20567;-76
2023/09/18 11:03:45;;;;;;;7.00;5.30;;;29.00;1.00;;;;;;5078196;28;20476;-73
2023/09/18 11:06:14;;;;;;;7.03;6.27;;;29.10;1.00;;;;;;5084417;28;20527;-74
2023/09/18 11:08:45;;;;;;;5.90;5.50;;;29.10;1.00;;;;;;5083628;28;20487;-72
2023/09/18 11:11:14;;;;;;;6.23;5.73;;;28.80;1.00;;;;;;5083733;28;20461;-75
2023/09/18 11:13:43;;;;;;;6.50;6.10;;;28.70;1.00;;;;;;5087454;28;20471;-75
2023/09/18 11:16:38;;;;;;;5.73;5.33;;;28.60;1.00;;;;;;5087568;28;20452;-76
2023/09/18 11:19:17;;;;;;;6.43;5.30;;;28.10;1.00;;;;;;5087651;28;20458;-73
2023/09/18 11:21:45;;;;;;;6.53;5.93;;;28.00;1.00;;;;;;5088193;28;20475;-73
2023/09/18 11:24:18;;;;;;;7.10;6.40;;;28.00;1.00;;;;;;5088362;28;20467;-74
2023/09/18 11:26:47;;;;;;;8.10;6.13;;;28.00;1.00;;;;;;5088037;28;20570;-74
2023/09/18 11:29:18;;;;;;;6.77;6.00;;;27.90;1.00;;;;;;5087050;28;20504;-72
2023/09/18 11:31:49;;;;;;;6.37;5.93;;;27.80;1.00;;;;;;5084277;28;20906;-73
2023/09/18 11:34:17;;;;;;;6.77;6.10;;;27.80;1.00;;;;;;5083911;28;20490;-74
2023/09/18 11:36:44;;;;;;;7.03;6.27;;;27.60;1.00;;;;;;5084039;28;21730;-74
2023/09/18 11:39:15;;;;;;;8.63;6.50;;;27.50;1.00;;;;;;5084706;28;20486;-73
2023/09/18 11:41:43;;;;;;;7.20;6.53;;;27.50;1.00;;;;;;5081315;28;20947;-75
2023/09/18 11:44:31;;;;;;;6.13;5.63;;;27.40;1.00;;;;;;5080834;28;20518;-74
2023/09/18 11:47:00;;;;;;;5.93;5.47;;;27.40;1.00;;;;;;5084692;28;20458;-74
2023/09/18 11:49:31;;;;;;;7.23;6.70;;;27.30;1.00;;;;;;5084592;28;20558;-75
2023/09/18 11:52:00;;;;;;;9.00;7.07;;;27.30;1.00;;;;;;5086171;28;20622;-74
2023/09/18 11:54:29;;;;;;;6.87;6.27;;;27.10;1.00;;;;;;5087059;28;21020;-73
2023/09/18 11:56:57;;;;;;;7.63;6.40;;;26.90;1.00;;;;;;5086961;28;21623;-74
2023/09/18 11:59:36;;;;;;;7.57;6.97;;;26.90;1.00;;;;;;5088145;28;20848;-76
2023/09/18 12:02:06;;;;;;;6.90;5.93;;;26.90;1.00;;;;;;5085274;28;20565;-76
2023/09/18 12:04:33;;;;;;;6.27;5.77;;;26.80;1.00;;;;;;5085493;28;20472;-75
2023/09/18 12:07:02;;;;;;;7.30;6.67;;;26.90;1.00;;;;;;5088481;28;20552;-73
2023/09/18 12:09:30;;;;;;;8.63;6.87;;;26.90;1.00;;;;;;5083940;28;20622;-75
2023/09/18 12:11:58;;;;;;;8.57;6.70;;;27.00;1.00;;;;;;5083957;28;20557;-74
2023/09/18 12:14:26;;;;;;;6.87;6.37;;;27.00;1.00;;;;;;5085630;28;20482;-75
2023/09/18 12:16:53;;;;;;;7.07;6.40;;;27.00;1.00;;;;;;5086475;28;20534;-73
2023/09/18 12:19:22;;;;;;;7.10;6.60;;;27.10;1.00;;;;;;5087041;28;21016;-75
2023/09/18 12:21:49;;;;;;;6.00;5.60;;;27.20;1.00;;;;;;5086478;28;20529;-73
2023/09/18 12:24:16;;;;;;;6.07;5.67;;;27.30;1.00;;;;;;5087362;28;20542;-76
2023/09/18 12:26:43;;;;;;;6.37;5.97;;;27.50;1.00;;;;;;5082036;28;20552;-74
2023/09/18 12:29:11;;;;;;;9.87;5.80;;;28.00;1.00;;;;;;5084269;28;20484;-73
2023/09/18 12:31:39;;;;;;;6.40;5.90;;;28.70;1.00;;;;;;5081054;28;20473;-72
2023/09/18 12:34:14;;;;;;;5.90;5.50;;;29.20;1.00;;;;;;5083934;28;20461;-75
2023/09/18 12:36:44;;;;;;;6.30;5.80;;;29.30;1.00;;;;;;5085608;28;20995;-73
2023/09/18 12:39:11;;;;;;;6.07;5.57;;;29.20;1.00;;;;;;5082387;28;20469;-70
2023/09/18 12:41:39;;;;;;;7.97;6.50;;;29.00;1.00;;;;;;5084169;28;20449;-69
2023/09/18 12:44:07;;;;;;;7.63;6.67;;;29.00;1.00;;;;;;5081830;28;20547;-71
2023/09/18 12:46:36;;;;;;;6.40;5.80;;;29.00;1.00;;;;;;5078391;28;20564;-70
2023/09/18 12:49:17;;;;;;;6.33;5.80;;;28.90;1.00;;;;;;5082870;28;20479;-70
2023/09/18 12:51:46;;;;;;;8.13;6.07;;;28.50;1.00;;;;;;5078581;28;20548;-70